Time;durP1;ratioP1;P1;durP2;ratioP2;P2;SDS_P1;SDS_P2;PMS_P1;PMS_P2;Temp;Humidity;BMP_temperature;BMP_pressure;BME280_temperature;BME280_humidity;BME280_pressure;Samples;Min_cycle;Max_cycle;Signal;HPM_P1;HPM_P2
2022/10/06 00:00:39;;;;;;;1.13;1.13;;;;;;;;;;5098517;28;20199;-84
2022/10/06 00:03:08;;;;;;;2.88;1.10;;;;;;;;;;5097882;28;20622;-84
2022/10/06 00:05:35;;;;;;;1.42;1.33;;;;;;;;;;5097485;28;20204;-84
2022/10/06 00:08:03;;;;;;;1.10;1.10;;;;;;;;;;5097916;28;20283;-84
2022/10/06 00:10:31;;;;;;;1.45;1.35;;;;;;;;;;5097573;28;20200;-84
2022/10/06 00:12:59;;;;;;;0.95;0.95;;;;;;;;;;5096974;28;20584;-84
2022/10/06 00:15:29;;;;;;;1.30;1.20;;;;;;;;;;5098017;28;20220;-84
2022/10/06 00:17:58;;;;;;;2.05;1.85;;;;;;;;;;5097223;28;20963;-84
2022/10/06 00:20:27;;;;;;;1.20;1.17;;;;;;;;;;5097475;28;20201;-85
2022/10/06 00:22:56;;;;;;;1.55;1.42;;;;;;;;;;5096961;28;20771;-84
2022/10/06 00:25:25;;;;;;;1.50;1.42;;;;;;;;;;5096957;28;20670;-84
2022/10/06 00:27:53;;;;;;;1.30;1.20;;;;;;;;;;5097225;28;20196;-85
2022/10/06 00:30:23;;;;;;;1.30;1.30;;;;;;;;;;5096736;28;20201;-84
2022/10/06 00:32:53;;;;;;;1.63;1.30;;;;;;;;;;5096704;28;20204;-84
2022/10/06 00:35:21;;;;;;;1.25;1.20;;;;;;;;;;5097185;28;20216;-83
2022/10/06 00:37:50;;;;;;;1.27;1.17;;;;;;;;;;5094911;28;20208;-84
2022/10/06 00:40:18;;;;;;;1.20;1.10;;;;;;;;;;5094987;28;20295;-84
2022/10/06 00:42:52;;;;;;;0.88;0.88;;;;;;;;;;5086491;28;20220;-83
2022/10/06 00:45:27;;;;;;;2.05;1.35;;;;;;;;;;5084234;28;20318;-83
2022/10/06 00:47:55;;;;;;;3.50;1.60;;;;;;;;;;5095462;28;20206;-83
2022/10/06 00:50:23;;;;;;;1.00;1.00;;;;;;;;;;5087549;28;20570;-84
2022/10/06 00:52:54;;;;;;;2.15;1.25;;;;;;;;;;5096739;28;20207;-84
2022/10/06 00:55:22;;;;;;;2.80;1.30;;;;;;;;;;5096276;28;20227;-85
2022/10/06 00:57:50;;;;;;;1.42;1.23;;;;;;;;;;5096543;28;20208;-83
2022/10/06 01:00:18;;;;;;;1.30;1.20;;;;;;;;;;5095970;28;20300;-83
2022/10/06 01:02:50;;;;;;;1.67;1.58;;;;;;;;;;5095734;28;20223;-84
2022/10/06 01:05:24;;;;;;;1.45;1.23;;;;;;;;;;5095831;28;20307;-84
2022/10/06 01:07:52;;;;;;;2.03;1.30;;;;;;;;;;5096271;28;20211;-83
2022/10/06 01:10:20;;;;;;;1.50;1.38;;;;;;;;;;5094527;28;20286;-83
2022/10/06 01:12:48;;;;;;;0.90;0.90;;;;;;;;;;5095442;28;20259;-83
2022/10/06 01:15:16;;;;;;;1.00;1.00;;;;;;;;;;5095000;28;20246;-84
2022/10/06 01:17:49;;;;;;;1.05;0.90;;;;;;;;;;5095356;28;20202;-85
2022/10/06 01:20:19;;;;;;;1.08;0.98;;;;;;;;;;5095042;28;20197;-84
2022/10/06 01:22:51;;;;;;;0.60;0.60;;;;;;;;;;5095392;28;20307;-84
2022/10/06 01:25:19;;;;;;;2.05;1.20;;;;;;;;;;5095377;28;20219;-83
2022/10/06 01:27:52;;;;;;;0.95;0.80;;;;;;;;;;5094631;28;20239;-84
2022/10/06 01:30:24;;;;;;;0.93;0.60;;;;;;;;;;5094958;28;20264;-83
2022/10/06 01:32:52;;;;;;;0.93;0.80;;;;;;;;;;5094775;28;20207;-84
2022/10/06 01:35:20;;;;;;;0.60;0.60;;;;;;;;;;5094813;28;20668;-84
2022/10/06 01:37:48;;;;;;;2.28;0.82;;;;;;;;;;5095606;28;20655;-84
2022/10/06 01:40:17;;;;;;;0.70;0.70;;;;;;;;;;5094446;28;20204;-84
2022/10/06 01:42:45;;;;;;;0.70;0.70;;;;;;;;;;5094118;28;20248;-83
2022/10/06 01:45:12;;;;;;;0.50;0.50;;;;;;;;;;5094194;28;20311;-83
2022/10/06 01:47:40;;;;;;;0.60;0.60;;;;;;;;;;5094488;28;20280;-83
2022/10/06 01:50:08;;;;;;;0.50;0.50;;;;;;;;;;5093755;28;20294;-83
2022/10/06 01:52:36;;;;;;;0.77;0.60;;;;;;;;;;5093612;28;20619;-83
2022/10/06 01:55:07;;;;;;;0.60;0.45;;;;;;;;;;5093728;28;20299;-83
2022/10/06 01:57:39;;;;;;;0.60;0.60;;;;;;;;;;5093838;28;20227;-84
2022/10/06 02:00:09;;;;;;;0.40;0.40;;;;;;;;;;5093382;28;20204;-83
2022/10/06 02:02:36;;;;;;;1.08;0.68;;;;;;;;;;5093400;28;20311;-84
2022/10/06 02:05:05;;;;;;;0.47;0.47;;;;;;;;;;5093526;28;20274;-83
2022/10/06 02:07:32;;;;;;;0.63;0.40;;;;;;;;;;5094090;28;20652;-83
2022/10/06 02:09:59;;;;;;;1.25;0.77;;;;;;;;;;5093503;28;20239;-84
2022/10/06 02:12:30;;;;;;;0.55;0.55;;;;;;;;;;5093725;28;20264;-84
2022/10/06 02:14:58;;;;;;;0.50;0.50;;;;;;;;;;5093827;28;20227;-83
2022/10/06 02:17:25;;;;;;;0.88;0.88;;;;;;;;;;5093656;28;20211;-83
2022/10/06 02:19:53;;;;;;;0.82;0.50;;;;;;;;;;5094354;28;20609;-83
2022/10/06 02:22:20;;;;;;;0.93;0.52;;;;;;;;;;5093632;28;20223;-83
2022/10/06 02:24:48;;;;;;;0.80;0.60;;;;;;;;;;5093627;28;20219;-83
2022/10/06 02:27:15;;;;;;;0.77;0.63;;;;;;;;;;5093730;28;20254;-83
2022/10/06 02:29:44;;;;;;;0.60;0.60;;;;;;;;;;5093273;28;20220;-84
2022/10/06 02:32:12;;;;;;;1.02;0.70;;;;;;;;;;5093635;28;20215;-83
2022/10/06 02:34:39;;;;;;;0.95;0.70;;;;;;;;;;5093861;28;20252;-84
2022/10/06 02:37:07;;;;;;;0.70;0.70;;;;;;;;;;5093584;28;20287;-83
2022/10/06 02:39:34;;;;;;;1.17;0.77;;;;;;;;;;5093416;28;20198;-83
2022/10/06 02:42:03;;;;;;;0.75;0.50;;;;;;;;;;5093203;28;20208;-83
2022/10/06 02:44:30;;;;;;;1.70;0.90;;;;;;;;;;5093046;28;20238;-84
2022/10/06 02:46:59;;;;;;;1.48;0.82;;;;;;;;;;5093247;28;20200;-84
2022/10/06 02:49:27;;;;;;;1.52;0.60;;;;;;;;;;5093320;28;20203;-84
2022/10/06 02:51:54;;;;;;;6.65;2.20;;;;;;;;;;5093601;28;20196;-83
2022/10/06 02:54:22;;;;;;;0.60;0.60;;;;;;;;;;5092715;28;20220;-84
2022/10/06 02:56:50;;;;;;;1.50;0.80;;;;;;;;;;5093814;28;20211;-83
2022/10/06 02:59:17;;;;;;;2.72;0.82;;;;;;;;;;5093067;28;20211;-83
2022/10/06 03:01:44;;;;;;;1.35;0.70;;;;;;;;;;5093227;28;20291;-84
2022/10/06 03:04:13;;;;;;;1.30;1.20;;;;;;;;;;5093162;28;20330;-86
2022/10/06 03:06:41;;;;;;;0.70;0.70;;;;;;;;;;5093134;28;20307;-84
2022/10/06 03:09:09;;;;;;;2.35;0.82;;;;;;;;;;5092858;28;20568;-83
2022/10/06 03:11:40;;;;;;;0.82;0.80;;;;;;;;;;5092756;28;20201;-83
2022/10/06 03:14:08;;;;;;;0.80;0.80;;;;;;;;;;5093057;28;20223;-83
2022/10/06 03:16:38;;;;;;;1.33;0.90;;;;;;;;;;5093247;28;20292;-84
2022/10/06 03:19:07;;;;;;;2.05;1.10;;;;;;;;;;5092773;28;20212;-83
2022/10/06 03:21:38;;;;;;;2.25;1.10;;;;;;;;;;5093311;28;20208;-84
2022/10/06 03:24:06;;;;;;;2.47;1.65;;;;;;;;;;5092774;28;20224;-83
2022/10/06 03:26:35;;;;;;;5.90;1.88;;;;;;;;;;5096522;28;20211;-83
2022/10/06 03:29:03;;;;;;;2.63;1.02;;;;;;;;;;5096313;28;20206;-83
2022/10/06 03:31:32;;;;;;;2.05;1.00;;;;;;;;;;5096794;28;20296;-83
2022/10/06 03:34:00;;;;;;;2.28;1.00;;;;;;;;;;5096742;28;20219;-83
2022/10/06 03:36:31;;;;;;;1.30;0.82;;;;;;;;;;5096518;28;20196;-83
2022/10/06 03:39:00;;;;;;;2.42;1.05;;;;;;;;;;5095830;28;20204;-84
2022/10/06 03:41:29;;;;;;;0.90;0.70;;;;;;;;;;5096370;28;20299;-83
2022/10/06 03:43:58;;;;;;;1.80;0.70;;;;;;;;;;5095779;28;20224;-82
2022/10/06 03:46:29;;;;;;;3.55;1.20;;;;;;;;;;5095966;28;20204;-83
2022/10/06 03:48:57;;;;;;;7.57;2.17;;;;;;;;;;5095656;28;20193;-83
2022/10/06 03:51:28;;;;;;;6.55;1.60;;;;;;;;;;5095796;28;20204;-83
2022/10/06 03:53:56;;;;;;;4.32;1.65;;;;;;;;;;5095825;28;20216;-82
2022/10/06 03:56:28;;;;;;;1.88;0.90;;;;;;;;;;5095846;28;20203;-82
2022/10/06 03:58:58;;;;;;;3.80;1.40;;;;;;;;;;5095352;28;20211;-83
2022/10/06 04:01:29;;;;;;;3.42;1.40;;;;;;;;;;5095645;28;20262;-83
2022/10/06 04:03:57;;;;;;;1.27;1.00;;;;;;;;;;5095446;28;20228;-83
2022/10/06 04:06:27;;;;;;;2.72;1.45;;;;;;;;;;5095651;28;20207;-83
2022/10/06 04:08:55;;;;;;;4.65;1.50;;;;;;;;;;5095318;28;20197;-82
2022/10/06 04:11:26;;;;;;;4.78;1.25;;;;;;;;;;5095377;28;20556;-82
2022/10/06 04:13:56;;;;;;;3.38;1.30;;;;;;;;;;5095487;28;20220;-83
2022/10/06 04:16:26;;;;;;;1.70;1.15;;;;;;;;;;5094816;28;20212;-82
2022/10/06 04:18:57;;;;;;;2.40;1.20;;;;;;;;;;5094940;28;20706;-83
2022/10/06 04:21:25;;;;;;;3.13;1.30;;;;;;;;;;5095034;28;20203;-83
2022/10/06 04:23:53;;;;;;;1.77;1.20;;;;;;;;;;5095079;28;20224;-82
2022/10/06 04:26:22;;;;;;;1.50;0.93;;;;;;;;;;5095088;28;20206;-82
2022/10/06 04:28:52;;;;;;;3.15;1.10;;;;;;;;;;5094363;28;20213;-82
2022/10/06 04:31:21;;;;;;;4.07;1.40;;;;;;;;;;5094832;28;20295;-83
2022/10/06 04:33:52;;;;;;;1.80;1.23;;;;;;;;;;5094837;28;20224;-83
2022/10/06 04:36:22;;;;;;;2.40;1.25;;;;;;;;;;5094306;28;20200;-83
2022/10/06 04:38:50;;;;;;;1.73;1.00;;;;;;;;;;5094721;28;20201;-83
2022/10/06 04:41:19;;;;;;;2.08;1.15;;;;;;;;;;5094212;28;20200;-82
2022/10/06 04:43:47;;;;;;;1.45;0.95;;;;;;;;;;5097369;28;20220;-82
2022/10/06 04:46:18;;;;;;;2.75;1.60;;;;;;;;;;5095306;28;20287;-81
2022/10/06 04:48:46;;;;;;;2.03;1.00;;;;;;;;;;5094175;28;20587;-82
2022/10/06 04:51:16;;;;;;;3.65;1.27;;;;;;;;;;5094052;28;20197;-80
2022/10/06 04:53:45;;;;;;;1.77;1.33;;;;;;;;;;5093862;28;20218;-82
2022/10/06 04:56:14;;;;;;;1.92;1.20;;;;;;;;;;5094097;28;20192;-82
2022/10/06 04:58:44;;;;;;;2.10;1.08;;;;;;;;;;5093845;28;20200;-82
2022/10/06 05:01:19;;;;;;;1.75;1.10;;;;;;;;;;5093934;28;20204;-81
2022/10/06 05:03:47;;;;;;;3.60;1.25;;;;;;;;;;5093626;28;20234;-82
2022/10/06 05:06:18;;;;;;;2.13;1.40;;;;;;;;;;5093466;28;20200;-82
2022/10/06 05:08:48;;;;;;;1.80;1.13;;;;;;;;;;5093789;28;20208;-79
2022/10/06 05:11:16;;;;;;;5.28;1.63;;;;;;;;;;5094017;28;20200;-81
2022/10/06 05:13:44;;;;;;;4.65;1.65;;;;;;;;;;5094705;28;20216;-82
2022/10/06 05:16:14;;;;;;;1.25;0.77;;;;;;;;;;5094611;28;20238;-81
2022/10/06 05:18:44;;;;;;;4.40;1.30;;;;;;;;;;5094496;28;20206;-82
2022/10/06 05:21:14;;;;;;;2.88;1.33;;;;;;;;;;5094115;28;20196;-82
2022/10/06 05:23:43;;;;;;;5.18;1.63;;;;;;;;;;5093940;28;20878;-82
2022/10/06 05:26:12;;;;;;;2.88;1.25;;;;;;;;;;5093910;28;20204;-83
2022/10/06 05:28:40;;;;;;;2.50;1.30;;;;;;;;;;5093704;28;20589;-81
2022/10/06 05:31:11;;;;;;;2.05;1.42;;;;;;;;;;5093759;28;20200;-81
2022/10/06 05:33:40;;;;;;;2.03;1.55;;;;;;;;;;5091835;28;20316;-82
2022/10/06 05:36:12;;;;;;;5.45;1.45;;;;;;;;;;5073579;28;20201;-81
2022/10/06 05:38:40;;;;;;;3.20;1.83;;;;;;;;;;5074037;28;20197;-80
2022/10/06 05:41:10;;;;;;;1.85;1.17;;;;;;;;;;5089374;28;20203;-81
2022/10/06 05:43:38;;;;;;;2.88;1.48;;;;;;;;;;5084203;28;20224;-81
2022/10/06 05:46:08;;;;;;;2.15;1.60;;;;;;;;;;5081151;28;20217;-82
2022/10/06 05:48:36;;;;;;;1.75;1.45;;;;;;;;;;5073550;28;20287;-82
2022/10/06 05:51:06;;;;;;;1.23;1.13;;;;;;;;;;5074009;28;20300;-82
2022/10/06 05:53:36;;;;;;;2.65;1.30;;;;;;;;;;5073420;28;20229;-80
2022/10/06 05:56:07;;;;;;;4.10;2.30;;;;;;;;;;5073641;28;20200;-82
2022/10/06 05:58:36;;;;;;;4.60;2.25;;;;;;;;;;5080209;28;20196;-81
2022/10/06 06:01:08;;;;;;;4.18;1.75;;;;;;;;;;5093692;28;20208;-82
2022/10/06 06:03:36;;;;;;;6.38;1.42;;;;;;;;;;5094239;28;20262;-81
2022/10/06 06:06:11;;;;;;;2.42;1.02;;;;;;;;;;5093885;28;20234;-83
2022/10/06 06:08:40;;;;;;;3.03;1.45;;;;;;;;;;5093832;28;20679;-82
2022/10/06 06:11:08;;;;;;;3.53;1.83;;;;;;;;;;5093242;28;20690;-82
2022/10/06 06:13:36;;;;;;;2.97;1.42;;;;;;;;;;5093385;28;20307;-82
2022/10/06 06:16:07;;;;;;;3.47;1.50;;;;;;;;;;5093162;28;20204;-81
2022/10/06 06:18:37;;;;;;;3.13;1.38;;;;;;;;;;5093505;28;20291;-81
2022/10/06 06:21:07;;;;;;;3.40;2.17;;;;;;;;;;5093207;28;20200;-81
2022/10/06 06:23:37;;;;;;;2.63;1.30;;;;;;;;;;5074089;28;20223;-81
2022/10/06 06:26:08;;;;;;;3.30;1.40;;;;;;;;;;5072727;28;20221;-82
2022/10/06 06:28:36;;;;;;;3.50;1.50;;;;;;;;;;5073023;28;20291;-83
2022/10/06 06:31:05;;;;;;;1.80;0.98;;;;;;;;;;5073319;28;20201;-83
2022/10/06 06:33:34;;;;;;;5.38;1.45;;;;;;;;;;5073274;28;20609;-82
2022/10/06 06:36:02;;;;;;;4.32;1.20;;;;;;;;;;5088725;28;20271;-81
2022/10/06 06:38:31;;;;;;;3.65;1.45;;;;;;;;;;5093301;28;20200;-83
2022/10/06 06:40:59;;;;;;;5.88;2.08;;;;;;;;;;5093550;28;20667;-83
2022/10/06 06:43:28;;;;;;;1.70;1.20;;;;;;;;;;5094026;28;20235;-82
2022/10/06 06:46:03;;;;;;;1.77;1.48;;;;;;;;;;5093565;28;20232;-83
2022/10/06 06:48:30;;;;;;;3.50;1.30;;;;;;;;;;5093036;28;20245;-81
2022/10/06 06:50:58;;;;;;;3.42;1.50;;;;;;;;;;5090574;28;20224;-81
2022/10/06 06:53:26;;;;;;;7.82;3.25;;;;;;;;;;5092393;28;20240;-81
2022/10/06 06:55:53;;;;;;;1.90;1.15;;;;;;;;;;5093056;28;20582;-81
2022/10/06 06:58:21;;;;;;;3.58;2.42;;;;;;;;;;5092708;28;20214;-81
2022/10/06 07:00:50;;;;;;;1.95;1.05;;;;;;;;;;5096113;28;20204;-81
2022/10/06 07:03:20;;;;;;;5.05;1.40;;;;;;;;;;5095472;28;20295;-81
2022/10/06 07:05:47;;;;;;;3.33;1.10;;;;;;;;;;5096103;28;20220;-81
2022/10/06 07:08:18;;;;;;;3.28;1.48;;;;;;;;;;5095539;28;20208;-81
2022/10/06 07:10:47;;;;;;;6.65;1.92;;;;;;;;;;5096032;28;20625;-81
2022/10/06 07:13:16;;;;;;;2.47;1.60;;;;;;;;;;5095650;28;20226;-80
2022/10/06 07:27:05;;;;;;;3.38;1.05;;;;;;;;;;5052704;28;20355;-81
2022/10/06 07:29:33;;;;;;;2.58;1.30;;;;;;;;;;5077291;28;20200;-82
2022/10/06 07:32:00;;;;;;;4.50;1.63;;;;;;;;;;5096001;28;20291;-81
2022/10/06 07:34:29;;;;;;;1.63;1.20;;;;;;;;;;5094163;28;20224;-81
2022/10/06 07:36:57;;;;;;;4.13;1.67;;;;;;;;;;5076105;28;20201;-82
2022/10/06 07:39:25;;;;;;;3.50;1.40;;;;;;;;;;5076368;28;20823;-84
2022/10/06 07:41:52;;;;;;;4.07;1.38;;;;;;;;;;5089107;28;20254;-82
2022/10/06 07:44:20;;;;;;;5.07;1.58;;;;;;;;;;5096052;28;20711;-81
2022/10/06 07:46:48;;;;;;;2.22;1.25;;;;;;;;;;5095835;28;20717;-82
2022/10/06 07:49:16;;;;;;;2.55;1.90;;;;;;;;;;5096116;28;20557;-81
2022/10/06 07:51:45;;;;;;;2.15;1.20;;;;;;;;;;5097359;28;20259;-81
2022/10/06 07:54:12;;;;;;;4.60;1.40;;;;;;;;;;5096633;28;20247;-83
2022/10/06 07:56:40;;;;;;;2.63;2.22;;;;;;;;;;5095594;28;20209;-83
2022/10/06 07:59:07;;;;;;;3.08;1.23;;;;;;;;;;5102512;28;20231;-82
2022/10/06 08:01:35;;;;;;;1.98;1.33;;;;;;;;;;5103029;28;20235;-83
2022/10/06 08:04:05;;;;;;;3.72;1.27;;;;;;;;;;5105236;28;20600;-82
2022/10/06 08:06:33;;;;;;;2.63;1.90;;;;;;;;;;5103587;28;20276;-83
2022/10/06 08:09:02;;;;;;;1.77;1.17;;;;;;;;;;5102530;28;20742;-83
2022/10/06 08:11:29;;;;;;;3.33;1.65;;;;;;;;;;5099194;28;20204;-84
2022/10/06 08:13:57;;;;;;;2.92;1.67;;;;;;;;;;5099664;28;20303;-83
2022/10/06 08:16:28;;;;;;;3.38;1.48;;;;;;;;;;5099064;28;20246;-83
2022/10/06 08:18:57;;;;;;;5.07;1.98;;;;;;;;;;5098732;28;20222;-84
2022/10/06 08:21:28;;;;;;;5.03;2.22;;;;;;;;;;5098139;28;20197;-83
2022/10/06 08:23:57;;;;;;;3.15;1.52;;;;;;;;;;5097931;28;20220;-83
2022/10/06 08:26:27;;;;;;;4.80;2.20;;;;;;;;;;5096970;28;20315;-81
2022/10/06 08:29:01;;;;;;;2.05;1.30;;;;;;;;;;5097205;28;20201;-83
2022/10/06 08:31:30;;;;;;;3.88;1.23;;;;;;;;;;5097987;28;20261;-84
2022/10/06 08:33:58;;;;;;;3.38;1.40;;;;;;;;;;5098643;28;20255;-84
2022/10/06 08:36:27;;;;;;;3.70;1.30;;;;;;;;;;5079089;28;20279;-85
2022/10/06 08:38:55;;;;;;;4.32;1.45;;;;;;;;;;5076949;28;20205;-84
2022/10/06 08:41:26;;;;;;;1.98;1.20;;;;;;;;;;5085457;28;20261;-84
2022/10/06 08:43:59;;;;;;;4.13;2.38;;;;;;;;;;5096109;28;20266;-84
2022/10/06 08:46:32;;;;;;;1.45;1.35;;;;;;;;;;5097736;28;20304;-84
2022/10/06 08:49:01;;;;;;;2.17;1.48;;;;;;;;;;5097433;28;20200;-83
2022/10/06 08:51:46;;;;;;;6.68;2.50;;;;;;;;;;5096992;28;20203;-84
2022/10/06 08:54:17;;;;;;;3.85;1.10;;;;;;;;;;5096649;28;20220;-83
2022/10/06 08:56:53;;;;;;;1.90;1.40;;;;;;;;;;5096041;28;20200;-84
2022/10/06 08:59:21;;;;;;;2.10;1.60;;;;;;;;;;5094410;28;20204;-84
2022/10/06 09:01:52;;;;;;;1.42;1.10;;;;;;;;;;5096341;28;20234;-83
2022/10/06 09:04:27;;;;;;;1.63;1.20;;;;;;;;;;5096661;28;20231;-84
2022/10/06 09:07:02;;;;;;;4.68;2.30;;;;;;;;;;5096615;28;20219;-85
2022/10/06 09:09:46;;;;;;;1.95;0.93;;;;;;;;;;5095451;28;20231;-83
2022/10/06 09:12:21;;;;;;;2.55;1.30;;;;;;;;;;5094804;28;20637;-83
2022/10/06 09:14:51;;;;;;;3.42;1.08;;;;;;;;;;5095862;28;20254;-84
2022/10/06 09:17:26;;;;;;;2.42;1.23;;;;;;;;;;5094396;28;20283;-83
2022/10/06 09:19:58;;;;;;;1.30;0.98;;;;;;;;;;5095783;28;20195;-83
2022/10/06 09:22:28;;;;;;;2.00;0.93;;;;;;;;;;5096904;28;20736;-84
2022/10/06 09:25:01;;;;;;;2.22;1.20;;;;;;;;;;5097223;28;20666;-84
2022/10/06 09:27:35;;;;;;;3.55;1.65;;;;;;;;;;5094270;28;20216;-84
2022/10/06 09:30:05;;;;;;;2.65;1.92;;;;;;;;;;5095583;28;20205;-84
2022/10/06 09:32:33;;;;;;;4.50;1.33;;;;;;;;;;5095208;28;20205;-84
2022/10/06 09:35:03;;;;;;;2.05;1.10;;;;;;;;;;5088875;28;20212;-84
2022/10/06 09:37:56;;;;;;;2.60;1.65;;;;;;;;;;5075060;28;20232;-83
2022/10/06 09:40:40;;;;;;;1.80;1.40;;;;;;;;;;5074709;28;20212;-83
2022/10/06 09:43:20;;;;;;;9.63;1.80;;;;;;;;;;5094175;28;20216;-83
2022/10/06 09:45:48;;;;;;;2.92;1.30;;;;;;;;;;5094009;28;20214;-84
2022/10/06 09:48:22;;;;;;;3.17;1.40;;;;;;;;;;5094064;28;20220;-84
2022/10/06 09:51:14;;;;;;;3.20;1.58;;;;;;;;;;5094764;28;20663;-84
2022/10/06 09:53:42;;;;;;;1.10;1.00;;;;;;;;;;5095936;28;20695;-84
2022/10/06 09:56:17;;;;;;;4.18;1.75;;;;;;;;;;5094838;28;20226;-84
2022/10/06 09:58:56;;;;;;;5.07;2.30;;;;;;;;;;5094604;28;20651;-82
2022/10/06 10:01:25;;;;;;;3.10;1.40;;;;;;;;;;5094057;28;20206;-83
2022/10/06 10:03:59;;;;;;;1.92;1.40;;;;;;;;;;5093616;28;20220;-83
2022/10/06 10:06:29;;;;;;;3.13;1.20;;;;;;;;;;5093758;28;20420;-84
2022/10/06 10:09:21;;;;;;;1.65;1.10;;;;;;;;;;5093597;28;20211;-84
2022/10/06 10:14:48;;;;;;;3.70;1.42;;;;;;;;;;5093977;28;20246;-84
2022/10/06 10:17:20;;;;;;;3.03;1.33;;;;;;;;;;5094103;28;20229;-83
2022/10/06 10:19:52;;;;;;;2.42;1.45;;;;;;;;;;5093926;28;20204;-83
2022/10/06 10:22:24;;;;;;;1.50;1.00;;;;;;;;;;5093110;28;20203;-82
2022/10/06 10:25:05;;;;;;;1.30;1.20;;;;;;;;;;5093763;28;20303;-82
2022/10/06 10:27:43;;;;;;;3.35;1.20;;;;;;;;;;5094177;28;20220;-82
2022/10/06 10:30:13;;;;;;;3.63;1.90;;;;;;;;;;5093585;28;20626;-83
2022/10/06 10:32:51;;;;;;;4.82;2.15;;;;;;;;;;5094307;28;20195;-82
2022/10/06 10:35:25;;;;;;;1.05;0.95;;;;;;;;;;5089377;28;20252;-82
2022/10/06 10:37:57;;;;;;;3.35;1.67;;;;;;;;;;5078612;28;20260;-83
2022/10/06 10:40:32;;;;;;;2.85;1.40;;;;;;;;;;5077757;28;20251;-83
2022/10/06 10:43:11;;;;;;;4.38;1.40;;;;;;;;;;5098114;28;20628;-82
2022/10/06 10:45:45;;;;;;;1.60;0.98;;;;;;;;;;5099160;28;20208;-83
2022/10/06 10:48:17;;;;;;;3.72;1.35;;;;;;;;;;5097291;28;20230;-83
2022/10/06 10:50:54;;;;;;;2.67;1.10;;;;;;;;;;5086187;28;20193;-82
2022/10/06 10:53:31;;;;;;;1.70;1.17;;;;;;;;;;5077266;28;20220;-83
2022/10/06 10:55:59;;;;;;;2.00;1.27;;;;;;;;;;5076546;28;20208;-82
2022/10/06 10:58:31;;;;;;;1.20;1.10;;;;;;;;;;5076253;28;20234;-82
2022/10/06 11:01:09;;;;;;;3.55;1.25;;;;;;;;;;5081260;28;20192;-82
2022/10/06 11:03:37;;;;;;;1.17;1.05;;;;;;;;;;5097965;28;20704;-82
2022/10/06 11:06:24;;;;;;;2.65;1.73;;;;;;;;;;5096869;28;20204;-83
2022/10/06 11:08:57;;;;;;;3.25;1.00;;;;;;;;;;5096508;28;20224;-82
2022/10/06 11:11:44;;;;;;;1.60;1.33;;;;;;;;;;5096575;28;20208;-82
2022/10/06 11:14:25;;;;;;;3.38;1.35;;;;;;;;;;5096718;28;20657;-83
2022/10/06 11:16:59;;;;;;;2.53;1.33;;;;;;;;;;5075308;28;20676;-84
2022/10/06 11:19:40;;;;;;;1.42;1.33;;;;;;;;;;5077799;28;20208;-83
2022/10/06 11:22:14;;;;;;;4.00;1.48;;;;;;;;;;5077569;28;20200;-84
2022/10/06 11:24:50;;;;;;;2.60;1.52;;;;;;;;;;5076563;28;20252;-83
2022/10/06 11:27:28;;;;;;;0.80;0.80;;;;;;;;;;5075905;28;20677;-83
2022/10/06 11:30:05;;;;;;;2.58;1.35;;;;;;;;;;5074663;28;20208;-84
2022/10/06 11:32:46;;;;;;;1.95;1.00;;;;;;;;;;5076832;28;20200;-83
2022/10/06 11:35:19;;;;;;;2.50;0.98;;;;;;;;;;5085037;28;20303;-84
2022/10/06 11:37:52;;;;;;;3.67;1.40;;;;;;;;;;5096413;28;20198;-83
2022/10/06 11:40:40;;;;;;;1.70;1.48;;;;;;;;;;5097109;28;20211;-83
2022/10/06 11:43:17;;;;;;;1.60;1.20;;;;;;;;;;5077372;28;20215;-83
2022/10/06 11:45:54;;;;;;;2.90;1.35;;;;;;;;;;5087102;28;20685;-84
2022/10/06 11:48:26;;;;;;;2.20;1.20;;;;;;;;;;5096000;28;20219;-84
2022/10/06 11:50:55;;;;;;;1.85;1.10;;;;;;;;;;5097329;28;20741;-83
2022/10/06 11:53:40;;;;;;;1.75;1.25;;;;;;;;;;5096653;28;20251;-83
2022/10/06 11:56:46;;;;;;;2.28;1.10;;;;;;;;;;5096310;28;20204;-84
2022/10/06 11:59:26;;;;;;;3.53;1.48;;;;;;;;;;5082699;28;20269;-84
2022/10/06 12:01:57;;;;;;;2.30;1.23;;;;;;;;;;5097478;28;20245;-83
2022/10/06 12:04:27;;;;;;;3.58;1.20;;;;;;;;;;5097865;28;20215;-83
2022/10/06 12:06:59;;;;;;;1.40;0.82;;;;;;;;;;5095913;28;20315;-83
2022/10/06 12:09:51;;;;;;;2.22;1.58;;;;;;;;;;5094909;28;20710;-83
2022/10/06 12:12:44;;;;;;;1.40;1.13;;;;;;;;;;5096531;28;20204;-83
2022/10/06 12:15:59;;;;;;;3.50;1.45;;;;;;;;;;5093323;28;20702;-83
2022/10/06 12:18:48;;;;;;;1.45;1.05;;;;;;;;;;5095138;28;20211;-83
2022/10/06 12:21:31;;;;;;;1.20;1.10;;;;;;;;;;5095509;28;20204;-84
2022/10/06 12:24:17;;;;;;;2.25;1.27;;;;;;;;;;5095243;28;20216;-84
2022/10/06 12:26:54;;;;;;;1.88;1.40;;;;;;;;;;5095047;28;20243;-84
2022/10/06 12:29:37;;;;;;;2.50;1.30;;;;;;;;;;5095187;28;20224;-84
2022/10/06 12:32:20;;;;;;;1.73;1.10;;;;;;;;;;5095693;28;20200;-83
2022/10/06 12:35:03;;;;;;;1.60;1.05;;;;;;;;;;5090616;28;20231;-84
2022/10/06 12:37:53;;;;;;;3.08;1.30;;;;;;;;;;5074978;28;20215;-83
2022/10/06 12:40:54;;;;;;;2.45;1.65;;;;;;;;;;5071110;28;20201;-84
2022/10/06 12:43:55;;;;;;;2.38;1.30;;;;;;;;;;5074543;28;20240;-84
2022/10/06 12:46:43;;;;;;;1.50;1.15;;;;;;;;;;5092328;28;20295;-84
2022/10/06 12:49:41;;;;;;;4.43;1.13;;;;;;;;;;5095864;28;20220;-83
2022/10/06 12:52:38;;;;;;;1.35;1.08;;;;;;;;;;5089340;28;20200;-83
2022/10/06 12:55:31;;;;;;;1.75;1.30;;;;;;;;;;5091552;28;20220;-83
2022/10/06 12:58:00;;;;;;;1.23;0.90;;;;;;;;;;5094735;28;20578;-83
2022/10/06 13:00:33;;;;;;;4.13;1.73;;;;;;;;;;5095289;28;20270;-83
2022/10/06 13:03:05;;;;;;;1.83;1.73;;;;;;;;;;5094494;28;20204;-83
2022/10/06 13:05:33;;;;;;;2.05;0.98;;;;;;;;;;5094623;28;20258;-82
2022/10/06 13:08:02;;;;;;;1.10;0.95;;;;;;;;;;5094440;28;20207;-83
2022/10/06 13:10:32;;;;;;;1.20;1.00;;;;;;;;;;5094182;28;20207;-83
2022/10/06 13:13:00;;;;;;;4.03;0.98;;;;;;;;;;5095962;28;20239;-84
2022/10/06 13:15:29;;;;;;;2.95;1.02;;;;;;;;;;5095013;28;20749;-83
2022/10/06 13:18:02;;;;;;;0.80;0.80;;;;;;;;;;5093919;28;20206;-83
2022/10/06 13:20:39;;;;;;;1.15;1.05;;;;;;;;;;5093665;28;20759;-83
2022/10/06 13:23:26;;;;;;;1.63;1.00;;;;;;;;;;5094252;28;20203;-83
2022/10/06 13:26:00;;;;;;;2.75;1.08;;;;;;;;;;5093728;28;20767;-83
2022/10/06 13:28:47;;;;;;;1.67;1.00;;;;;;;;;;5093435;28;20196;-83
2022/10/06 13:31:20;;;;;;;1.27;1.23;;;;;;;;;;5093918;28;20192;-82
2022/10/06 13:33:52;;;;;;;1.60;1.17;;;;;;;;;;5093748;28;20256;-83
2022/10/06 13:36:22;;;;;;;1.77;1.20;;;;;;;;;;5076195;28;20201;-83
2022/10/06 13:38:50;;;;;;;2.53;1.60;;;;;;;;;;5073047;28;20203;-83
2022/10/06 13:41:25;;;;;;;2.88;1.40;;;;;;;;;;5080508;28;20300;-83
2022/10/06 13:43:56;;;;;;;3.45;1.70;;;;;;;;;;5093187;28;20245;-82
2022/10/06 13:46:26;;;;;;;3.33;1.10;;;;;;;;;;5092896;28;20291;-82
2022/10/06 13:48:59;;;;;;;1.67;0.90;;;;;;;;;;5092468;28;20220;-82
2022/10/06 13:51:30;;;;;;;4.53;1.50;;;;;;;;;;5093141;28;20261;-82
2022/10/06 13:53:59;;;;;;;1.77;1.00;;;;;;;;;;5093259;28;20222;-83
2022/10/06 13:56:39;;;;;;;2.50;1.00;;;;;;;;;;5093362;28;20767;-83
2022/10/06 13:59:38;;;;;;;5.35;1.95;;;;;;;;;;5092371;28;20287;-82
2022/10/06 14:02:24;;;;;;;1.05;0.95;;;;;;;;;;5093120;28;20579;-83
2022/10/06 14:05:28;;;;;;;4.97;1.52;;;;;;;;;;5093158;28;20584;-83
2022/10/06 14:07:59;;;;;;;2.08;1.50;;;;;;;;;;5092150;28;20211;-82
2022/10/06 14:10:31;;;;;;;2.08;1.42;;;;;;;;;;5092633;28;20220;-83
2022/10/06 14:13:00;;;;;;;5.18;1.98;;;;;;;;;;5092928;28;20226;-83
2022/10/06 14:15:30;;;;;;;3.55;1.00;;;;;;;;;;5093076;28;20294;-82
2022/10/06 14:18:01;;;;;;;1.17;1.00;;;;;;;;;;5092749;28;20686;-82
2022/10/06 14:20:45;;;;;;;1.75;1.23;;;;;;;;;;5092318;28;20198;-83
2022/10/06 14:23:40;;;;;;;4.20;1.20;;;;;;;;;;5092944;28;20203;-82
2022/10/06 14:26:09;;;;;;;1.48;1.20;;;;;;;;;;5092927;28;20291;-82
2022/10/06 14:28:39;;;;;;;0.75;0.60;;;;;;;;;;5092256;28;20196;-83
2022/10/06 14:31:09;;;;;;;2.65;1.52;;;;;;;;;;5092949;28;20249;-83
2022/10/06 14:33:36;;;;;;;1.00;0.90;;;;;;;;;;5093713;28;20289;-83
2022/10/06 14:36:04;;;;;;;1.52;1.00;;;;;;;;;;5079231;28;20193;-83
2022/10/06 14:38:32;;;;;;;1.30;1.02;;;;;;;;;;5072609;28;20307;-82
2022/10/06 14:41:02;;;;;;;1.75;0.95;;;;;;;;;;5076849;28;20201;-82
2022/10/06 14:43:30;;;;;;;0.88;0.82;;;;;;;;;;5091769;28;20307;-82
2022/10/06 14:46:00;;;;;;;1.30;1.10;;;;;;;;;;5092522;28;20299;-83
2022/10/06 14:48:28;;;;;;;1.55;1.10;;;;;;;;;;5094192;28;20209;-82
2022/10/06 14:50:56;;;;;;;1.35;1.17;;;;;;;;;;5092079;28;20770;-82
2022/10/06 14:53:24;;;;;;;4.78;1.40;;;;;;;;;;5092104;28;20251;-83
2022/10/06 14:55:51;;;;;;;5.28;1.40;;;;;;;;;;5092016;28;20287;-83
2022/10/06 14:58:18;;;;;;;1.85;1.40;;;;;;;;;;5093126;28;20235;-83
2022/10/06 15:00:46;;;;;;;2.15;0.95;;;;;;;;;;5093798;28;20249;-83
2022/10/06 15:03:15;;;;;;;1.65;1.10;;;;;;;;;;5093515;28;20200;-82
2022/10/06 15:08:24;;;;;;;1.30;1.10;;;;;;;;;;5096062;28;20200;-82
2022/10/06 15:10:52;;;;;;;2.05;1.58;;;;;;;;;;5093054;28;20224;-82
2022/10/06 15:13:20;;;;;;;1.85;1.05;;;;;;;;;;5097090;28;20203;-83
2022/10/06 15:15:49;;;;;;;1.30;0.90;;;;;;;;;;5092685;28;20287;-82
2022/10/06 15:18:18;;;;;;;2.88;1.17;;;;;;;;;;5092706;28;20201;-82
2022/10/06 15:20:47;;;;;;;1.27;0.73;;;;;;;;;;5095474;28;20241;-83
2022/10/06 15:23:16;;;;;;;2.00;1.15;;;;;;;;;;5096402;28;20200;-83
2022/10/06 15:31:23;;;;;;;0.82;0.82;;;;;;;;;;5096124;28;20376;-83
2022/10/06 15:33:53;;;;;;;1.50;1.27;;;;;;;;;;5096592;28;20248;-83